Time;durP1;ratioP1;P1;durP2;ratioP2;P2;SDS_P1;SDS_P2;PMS_P1;PMS_P2;Temp;Humidity;BMP_temperature;BMP_pressure;BME280_temperature;BME280_humidity;BME280_pressure;Samples;Min_cycle;Max_cycle;Signal;HPM_P1;HPM_P2
2023/05/18 00:01:16;;;;;;;3.10;1.42;;;;;;;;;;5034692;28;20078;-75
2023/05/18 00:03:43;;;;;;;3.50;1.40;;;;;;;;;;5043606;28;20049;-75
2023/05/18 00:06:12;;;;;;;1.63;1.42;;;;;;;;;;5033302;28;20038;-74
2023/05/18 00:08:38;;;;;;;3.33;2.00;;;;;;;;;;4999657;28;20032;-74
2023/05/18 00:11:08;;;;;;;1.58;1.20;;;;;;;;;;5007657;28;20053;-74
2023/05/18 00:13:38;;;;;;;2.88;1.45;;;;;;;;;;5027579;28;20018;-75
2023/05/18 00:16:04;;;;;;;1.98;1.20;;;;;;;;;;5026723;28;20036;-74
2023/05/18 00:18:30;;;;;;;4.15;1.80;;;;;;;;;;5027192;28;20064;-74
2023/05/18 00:20:59;;;;;;;4.97;1.60;;;;;;;;;;5029351;28;20087;-74
2023/05/18 00:23:28;;;;;;;3.78;1.38;;;;;;;;;;5032373;28;20036;-75
2023/05/18 00:25:55;;;;;;;3.67;1.30;;;;;;;;;;5030169;28;20026;-75
2023/05/18 00:28:21;;;;;;;1.75;1.25;;;;;;;;;;5029823;28;20151;-75
2023/05/18 00:30:49;;;;;;;2.97;1.45;;;;;;;;;;5029877;28;20026;-76
2023/05/18 00:33:15;;;;;;;3.38;1.40;;;;;;;;;;5029270;28;20540;-76
2023/05/18 00:35:41;;;;;;;1.98;1.30;;;;;;;;;;5029967;28;20084;-76
2023/05/18 00:38:07;;;;;;;1.70;1.15;;;;;;;;;;5030728;28;20380;-74
2023/05/18 00:40:33;;;;;;;3.55;1.35;;;;;;;;;;5012413;28;20480;-74
2023/05/18 00:42:59;;;;;;;1.63;1.30;;;;;;;;;;5028595;28;20037;-74
2023/05/18 00:45:28;;;;;;;1.48;1.23;;;;;;;;;;5029607;28;20032;-74
2023/05/18 00:47:54;;;;;;;4.10;1.20;;;;;;;;;;5029714;28;20164;-75
2023/05/18 00:50:20;;;;;;;2.70;1.23;;;;;;;;;;5030630;28;20026;-74
2023/05/18 00:52:46;;;;;;;1.83;1.25;;;;;;;;;;5029106;28;20511;-75
2023/05/18 00:55:13;;;;;;;3.40;1.25;;;;;;;;;;5030436;28;20108;-75
2023/05/18 00:57:44;;;;;;;2.25;1.20;;;;;;;;;;5011715;28;20030;-75
2023/05/18 01:00:12;;;;;;;3.03;1.30;;;;;;;;;;5010764;28;20164;-74
2023/05/18 01:02:41;;;;;;;3.17;1.30;;;;;;;;;;5025619;28;20034;-75
2023/05/18 01:05:07;;;;;;;1.40;1.27;;;;;;;;;;5040901;28;20151;-75
2023/05/18 01:07:33;;;;;;;2.00;1.08;;;;;;;;;;5034547;28;20034;-74
2023/05/18 01:09:59;;;;;;;1.25;1.15;;;;;;;;;;5029335;28;20083;-74
2023/05/18 01:12:29;;;;;;;1.83;1.20;;;;;;;;;;5029988;28;20112;-74
2023/05/18 01:15:03;;;;;;;3.72;1.65;;;;;;;;;;5037196;28;20056;-75
2023/05/18 01:17:36;;;;;;;3.17;1.45;;;;;;;;;;5042359;28;20508;-74
2023/05/18 01:20:25;;;;;;;0.88;0.80;;;;;;;;;;5028632;28;20111;-75
2023/05/18 01:23:12;;;;;;;2.40;1.27;;;;;;;;;;5029891;28;20025;-74
2023/05/18 01:25:41;;;;;;;1.27;0.88;;;;;;;;;;5009778;28;20032;-75
2023/05/18 01:28:08;;;;;;;1.30;1.20;;;;;;;;;;5031859;28;20053;-75
2023/05/18 01:30:35;;;;;;;4.03;1.48;;;;;;;;;;5031086;28;20480;-75
2023/05/18 01:33:06;;;;;;;1.45;1.17;;;;;;;;;;5044667;28;20029;-75
2023/05/18 01:35:31;;;;;;;2.95;0.88;;;;;;;;;;5028292;28;20658;-75
2023/05/18 01:37:57;;;;;;;0.93;0.82;;;;;;;;;;5010597;28;20025;-75
2023/05/18 01:40:25;;;;;;;0.68;0.68;;;;;;;;;;5025454;28;20062;-75
2023/05/18 01:42:55;;;;;;;2.45;0.90;;;;;;;;;;5028277;28;20031;-75
2023/05/18 01:45:23;;;;;;;2.58;1.20;;;;;;;;;;5027815;28;20033;-75
2023/05/18 01:47:50;;;;;;;3.67;0.93;;;;;;;;;;5029075;28;20090;-75
2023/05/18 01:50:18;;;;;;;1.58;0.90;;;;;;;;;;5027911;28;20029;-75
2023/05/18 01:52:57;;;;;;;0.80;0.80;;;;;;;;;;5032604;28;20029;-75
2023/05/18 01:55:24;;;;;;;2.67;1.08;;;;;;;;;;5027861;28;20029;-75
2023/05/18 01:57:52;;;;;;;1.48;1.00;;;;;;;;;;5029079;28;20124;-75
2023/05/18 02:00:18;;;;;;;0.77;0.57;;;;;;;;;;5028725;28;20025;-74
2023/05/18 02:02:45;;;;;;;1.55;0.98;;;;;;;;;;5039334;28;20456;-75
2023/05/18 02:05:14;;;;;;;1.02;0.60;;;;;;;;;;5034552;28;20164;-75
2023/05/18 02:07:42;;;;;;;2.88;0.95;;;;;;;;;;5029191;28;20026;-74
2023/05/18 02:10:09;;;;;;;2.95;0.90;;;;;;;;;;5028817;28;20024;-74
2023/05/18 02:12:35;;;;;;;1.88;0.63;;;;;;;;;;5030891;28;20075;-74
2023/05/18 02:15:04;;;;;;;1.27;0.82;;;;;;;;;;5027985;28;20358;-74
2023/05/18 02:17:31;;;;;;;1.45;0.75;;;;;;;;;;5027016;28;20128;-74
2023/05/18 02:19:56;;;;;;;0.88;0.70;;;;;;;;;;5028790;28;20537;-75
2023/05/18 02:22:22;;;;;;;0.88;0.77;;;;;;;;;;5031020;28;20028;-74
2023/05/18 02:24:51;;;;;;;1.88;0.90;;;;;;;;;;5035737;28;20039;-74
2023/05/18 02:27:16;;;;;;;1.55;0.90;;;;;;;;;;5026911;28;20384;-74
2023/05/18 02:29:42;;;;;;;2.15;1.10;;;;;;;;;;5028105;28;20484;-74
2023/05/18 02:32:08;;;;;;;1.35;0.90;;;;;;;;;;5027366;28;20021;-73
2023/05/18 02:34:37;;;;;;;1.08;0.95;;;;;;;;;;5032221;28;20083;-74
2023/05/18 02:37:03;;;;;;;1.02;0.88;;;;;;;;;;5027735;28;20564;-74
2023/05/18 02:39:29;;;;;;;1.08;0.60;;;;;;;;;;5028305;28;20026;-75
2023/05/18 02:41:55;;;;;;;1.02;0.70;;;;;;;;;;5027790;28;20036;-74
2023/05/18 02:44:21;;;;;;;1.05;0.80;;;;;;;;;;5037511;28;20492;-75
2023/05/18 02:46:47;;;;;;;5.97;1.35;;;;;;;;;;5026850;28;20473;-74
2023/05/18 02:49:13;;;;;;;1.00;0.60;;;;;;;;;;5027026;28;20036;-75
2023/05/18 02:51:39;;;;;;;1.85;1.00;;;;;;;;;;5026186;28;20030;-75
2023/05/18 02:54:05;;;;;;;0.77;0.70;;;;;;;;;;5027095;28;20022;-76
2023/05/18 02:56:31;;;;;;;2.13;0.80;;;;;;;;;;5025896;28;20030;-75
2023/05/18 02:58:59;;;;;;;1.13;0.65;;;;;;;;;;5026153;28;20021;-75
2023/05/18 03:01:25;;;;;;;1.05;0.95;;;;;;;;;;5025749;28;20037;-74
2023/05/18 03:03:52;;;;;;;0.55;0.52;;;;;;;;;;5026696;28;20021;-75
2023/05/18 03:06:22;;;;;;;0.68;0.68;;;;;;;;;;5030357;28;20036;-75
2023/05/18 03:08:48;;;;;;;1.30;0.93;;;;;;;;;;5026116;28;20036;-75
2023/05/18 03:11:14;;;;;;;1.00;0.50;;;;;;;;;;5026467;28;20373;-75
2023/05/18 03:13:40;;;;;;;3.03;0.90;;;;;;;;;;5027229;28;20028;-74
2023/05/18 03:16:06;;;;;;;1.30;0.70;;;;;;;;;;5025689;28;20124;-75
2023/05/18 03:18:32;;;;;;;0.73;0.70;;;;;;;;;;5026928;28;20484;-74
2023/05/18 03:21:00;;;;;;;0.77;0.70;;;;;;;;;;5026327;28;20071;-74
2023/05/18 03:23:26;;;;;;;0.98;0.73;;;;;;;;;;5026814;28;20037;-75
2023/05/18 03:25:54;;;;;;;1.30;0.88;;;;;;;;;;5024913;28;20041;-74
2023/05/18 03:28:20;;;;;;;0.68;0.68;;;;;;;;;;5027955;28;20775;-74
2023/05/18 03:30:46;;;;;;;1.30;0.77;;;;;;;;;;5026000;28;20033;-74
2023/05/18 03:33:12;;;;;;;3.20;1.17;;;;;;;;;;5023672;28;20021;-74
2023/05/18 03:35:39;;;;;;;1.17;1.08;;;;;;;;;;5026803;28;20262;-75
2023/05/18 03:38:05;;;;;;;2.17;0.93;;;;;;;;;;5028432;28;20543;-75
2023/05/18 03:40:31;;;;;;;0.75;0.75;;;;;;;;;;5026917;28;20636;-75
2023/05/18 03:42:57;;;;;;;1.13;0.60;;;;;;;;;;5025334;28;20197;-74
2023/05/18 03:45:23;;;;;;;1.33;0.50;;;;;;;;;;5025707;28;20132;-74
2023/05/18 03:47:50;;;;;;;3.00;0.73;;;;;;;;;;5032988;28;20406;-75
2023/05/18 03:50:16;;;;;;;1.05;0.50;;;;;;;;;;5026543;28;20083;-75
2023/05/18 03:52:43;;;;;;;2.72;1.00;;;;;;;;;;5025945;28;20469;-75
2023/05/18 03:55:10;;;;;;;0.50;0.50;;;;;;;;;;5026839;28;20432;-74
2023/05/18 03:57:36;;;;;;;0.57;0.57;;;;;;;;;;5028418;28;20396;-75
2023/05/18 04:00:03;;;;;;;0.50;0.50;;;;;;;;;;5028768;28;20031;-75
2023/05/18 04:02:29;;;;;;;1.15;0.73;;;;;;;;;;5028908;28;20033;-75
2023/05/18 04:04:56;;;;;;;0.77;0.60;;;;;;;;;;5041420;28;20092;-75
2023/05/18 04:07:23;;;;;;;0.47;0.43;;;;;;;;;;5028541;28;20037;-75
2023/05/18 04:09:49;;;;;;;2.05;1.10;;;;;;;;;;5029453;28;20041;-75
2023/05/18 04:12:15;;;;;;;1.48;0.68;;;;;;;;;;5030552;28;20049;-75
2023/05/18 04:14:41;;;;;;;0.68;0.68;;;;;;;;;;5034778;28;20488;-75
2023/05/18 04:17:08;;;;;;;0.95;0.50;;;;;;;;;;5023701;28;20099;-75
2023/05/18 04:19:35;;;;;;;0.50;0.45;;;;;;;;;;5028464;28;20025;-75
2023/05/18 04:22:04;;;;;;;0.50;0.50;;;;;;;;;;5012328;28;20033;-75
2023/05/18 04:24:31;;;;;;;3.28;0.95;;;;;;;;;;5029127;28;20484;-75
2023/05/18 04:26:59;;;;;;;2.67;0.82;;;;;;;;;;5037190;28;20025;-75
2023/05/18 04:29:25;;;;;;;1.02;0.80;;;;;;;;;;5028617;28;20021;-76
2023/05/18 04:31:52;;;;;;;1.00;0.60;;;;;;;;;;5029877;28;20025;-75
2023/05/18 04:34:18;;;;;;;0.80;0.70;;;;;;;;;;5027294;28;20041;-75
2023/05/18 04:36:45;;;;;;;1.13;0.52;;;;;;;;;;5029795;28;20457;-75
2023/05/18 04:39:11;;;;;;;0.95;0.55;;;;;;;;;;5029741;28;20037;-74
2023/05/18 04:41:41;;;;;;;1.85;1.05;;;;;;;;;;5030635;28;20061;-75
2023/05/18 04:44:08;;;;;;;0.63;0.50;;;;;;;;;;5030051;28;20439;-74
2023/05/18 04:46:36;;;;;;;1.20;0.75;;;;;;;;;;5031127;28;20064;-75
2023/05/18 04:49:02;;;;;;;0.45;0.43;;;;;;;;;;5030385;28;20018;-75
2023/05/18 04:51:28;;;;;;;0.50;0.50;;;;;;;;;;5028381;28;20048;-75
2023/05/18 04:53:54;;;;;;;1.48;0.50;;;;;;;;;;5029928;28;20033;-74
2023/05/18 04:56:21;;;;;;;0.60;0.50;;;;;;;;;;5013313;28;20037;-75
2023/05/18 04:58:47;;;;;;;1.17;0.70;;;;;;;;;;5029498;28;20033;-75
2023/05/18 05:01:16;;;;;;;1.15;0.60;;;;;;;;;;5028227;28;20061;-75
2023/05/18 05:03:42;;;;;;;0.88;0.70;;;;;;;;;;5029420;28;20528;-75
2023/05/18 05:06:08;;;;;;;0.63;0.47;;;;;;;;;;5040022;28;20041;-75
2023/05/18 05:08:34;;;;;;;0.68;0.47;;;;;;;;;;5037502;28;20025;-75
2023/05/18 05:11:01;;;;;;;1.15;0.45;;;;;;;;;;5028547;28;20357;-75
2023/05/18 05:13:27;;;;;;;0.82;0.82;;;;;;;;;;5029452;28;20472;-75
2023/05/18 05:15:53;;;;;;;1.52;0.70;;;;;;;;;;5028887;28;20041;-75
2023/05/18 05:18:19;;;;;;;0.40;0.40;;;;;;;;;;5026840;28;20026;-75
2023/05/18 05:20:45;;;;;;;2.20;1.00;;;;;;;;;;5025159;28;20022;-75
2023/05/18 05:23:11;;;;;;;0.95;0.70;;;;;;;;;;5030067;28;20361;-75
2023/05/18 05:25:37;;;;;;;0.35;0.35;;;;;;;;;;5029456;28;20033;-76
2023/05/18 05:28:03;;;;;;;0.90;0.70;;;;;;;;;;5035971;28;20687;-75
2023/05/18 05:30:29;;;;;;;2.47;0.50;;;;;;;;;;5031657;28;20416;-75
2023/05/18 05:32:55;;;;;;;0.85;0.65;;;;;;;;;;5029427;28;20144;-75
2023/05/18 05:35:21;;;;;;;0.50;0.50;;;;;;;;;;5028117;28;20528;-75
2023/05/18 05:37:47;;;;;;;1.15;0.57;;;;;;;;;;5030629;28;20049;-75
2023/05/18 05:40:13;;;;;;;2.70;0.40;;;;;;;;;;5030728;28;20038;-75
2023/05/18 05:42:40;;;;;;;0.82;0.75;;;;;;;;;;5027565;28;20116;-75
2023/05/18 05:45:06;;;;;;;2.08;0.50;;;;;;;;;;5028665;28;20036;-75
2023/05/18 05:47:32;;;;;;;2.97;0.80;;;;;;;;;;5030435;28;20052;-76
2023/05/18 05:49:58;;;;;;;0.30;0.30;;;;;;;;;;5028072;28;20021;-75
2023/05/18 05:52:27;;;;;;;0.65;0.55;;;;;;;;;;5034516;28;20495;-75
2023/05/18 05:54:53;;;;;;;0.38;0.38;;;;;;;;;;5026809;28;20037;-75
2023/05/18 05:57:19;;;;;;;1.17;0.60;;;;;;;;;;5029327;28;20028;-75
2023/05/18 05:59:45;;;;;;;0.35;0.35;;;;;;;;;;5026185;28;20488;-75
2023/05/18 06:02:11;;;;;;;2.17;0.50;;;;;;;;;;5027814;28;20075;-74
2023/05/18 06:04:37;;;;;;;1.00;0.70;;;;;;;;;;5032072;28;20049;-75
2023/05/18 06:07:03;;;;;;;0.90;0.60;;;;;;;;;;5029937;28;20025;-75
2023/05/18 06:09:30;;;;;;;0.63;0.60;;;;;;;;;;5025967;28;20094;-75
2023/05/18 06:11:56;;;;;;;3.63;0.63;;;;;;;;;;5028009;28;20049;-75
2023/05/18 06:14:22;;;;;;;1.17;0.70;;;;;;;;;;5027709;28;20541;-76
2023/05/18 06:16:48;;;;;;;1.20;0.50;;;;;;;;;;5027549;28;20034;-75
2023/05/18 06:19:14;;;;;;;0.95;0.60;;;;;;;;;;5025940;28;20060;-75
2023/05/18 06:21:40;;;;;;;1.00;0.45;;;;;;;;;;5030178;28;20021;-75
2023/05/18 06:24:06;;;;;;;1.77;0.52;;;;;;;;;;5028530;28;20029;-75
2023/05/18 06:26:32;;;;;;;1.55;0.63;;;;;;;;;;5028751;28;20037;-75
2023/05/18 06:28:58;;;;;;;0.55;0.55;;;;;;;;;;5028338;28;20025;-76
2023/05/18 06:31:24;;;;;;;1.13;0.57;;;;;;;;;;5027459;28;20026;-75
2023/05/18 06:33:50;;;;;;;1.75;0.60;;;;;;;;;;5025829;28;20025;-76
2023/05/18 06:36:16;;;;;;;0.73;0.50;;;;;;;;;;5025241;28;20567;-75
2023/05/18 06:38:42;;;;;;;1.02;0.77;;;;;;;;;;5035465;28;20033;-75
2023/05/18 06:41:08;;;;;;;0.50;0.50;;;;;;;;;;5021802;28;20366;-73
2023/05/18 06:43:34;;;;;;;0.88;0.50;;;;;;;;;;5022410;28;20251;-75
2023/05/18 06:46:01;;;;;;;0.77;0.50;;;;;;;;;;5029015;28;20037;-75
2023/05/18 06:48:28;;;;;;;0.57;0.57;;;;;;;;;;5026656;28;20026;-75
2023/05/18 06:50:54;;;;;;;1.05;0.43;;;;;;;;;;5023407;28;20048;-74
2023/05/18 06:53:22;;;;;;;1.00;0.50;;;;;;;;;;5028933;28;20030;-74
2023/05/18 06:55:47;;;;;;;0.30;0.30;;;;;;;;;;5028563;28;20025;-75
2023/05/18 06:58:13;;;;;;;0.38;0.38;;;;;;;;;;5024312;28;20033;-76
2023/05/18 07:00:39;;;;;;;1.13;0.60;;;;;;;;;;5026060;28;20025;-75
2023/05/18 07:03:07;;;;;;;1.58;0.73;;;;;;;;;;5028889;28;20025;-75
2023/05/18 07:05:32;;;;;;;0.30;0.30;;;;;;;;;;5027551;28;20179;-76
2023/05/18 07:07:58;;;;;;;0.93;0.68;;;;;;;;;;5025436;28;20541;-75
2023/05/18 07:10:25;;;;;;;0.75;0.50;;;;;;;;;;5027723;28;20019;-77
2023/05/18 07:12:50;;;;;;;0.60;0.52;;;;;;;;;;5026132;28;20072;-75
2023/05/18 07:15:16;;;;;;;0.35;0.30;;;;;;;;;;5029230;28;20029;-76
2023/05/18 07:17:43;;;;;;;1.15;0.50;;;;;;;;;;5026719;28;20719;-75
2023/05/18 07:20:10;;;;;;;1.33;0.47;;;;;;;;;;5028386;28;20026;-75
2023/05/18 07:22:36;;;;;;;0.40;0.30;;;;;;;;;;5026920;28;20036;-74
2023/05/18 07:25:02;;;;;;;0.90;0.70;;;;;;;;;;5030378;28;20025;-75
2023/05/18 07:27:28;;;;;;;0.40;0.40;;;;;;;;;;5026313;28;20136;-75
2023/05/18 07:29:54;;;;;;;0.85;0.40;;;;;;;;;;5007979;28;20022;-75
2023/05/18 07:32:20;;;;;;;0.30;0.30;;;;;;;;;;5025291;28;20369;-75
2023/05/18 07:34:46;;;;;;;1.88;0.30;;;;;;;;;;5026973;28;20395;-75
2023/05/18 07:37:13;;;;;;;0.43;0.43;;;;;;;;;;5027368;28;20030;-75
2023/05/18 07:39:39;;;;;;;0.95;0.50;;;;;;;;;;5024767;28;20034;-74
2023/05/18 07:42:05;;;;;;;1.27;0.50;;;;;;;;;;5025426;28;20032;-73
2023/05/18 07:44:31;;;;;;;0.93;0.30;;;;;;;;;;5023696;28;20657;-73
2023/05/18 07:46:57;;;;;;;1.85;0.55;;;;;;;;;;5026055;28;20050;-77
2023/05/18 07:49:24;;;;;;;0.65;0.35;;;;;;;;;;5026285;28;20017;-75
2023/05/18 07:51:50;;;;;;;2.20;0.80;;;;;;;;;;5022445;28;20025;-75
2023/05/18 07:54:16;;;;;;;0.40;0.40;;;;;;;;;;5025352;28;20039;-76
2023/05/18 07:56:43;;;;;;;0.43;0.43;;;;;;;;;;5024783;28;20384;-76
2023/05/18 07:59:09;;;;;;;0.15;0.15;;;;;;;;;;5026726;28;20029;-77
2023/05/18 08:01:36;;;;;;;1.40;0.52;;;;;;;;;;5026918;28;20902;-75
2023/05/18 08:04:05;;;;;;;0.43;0.43;;;;;;;;;;5030018;28;20036;-74
2023/05/18 08:06:31;;;;;;;0.45;0.45;;;;;;;;;;5033454;28;20040;-75
2023/05/18 08:08:57;;;;;;;1.48;0.80;;;;;;;;;;5021562;28;20060;-77
2023/05/18 08:11:23;;;;;;;1.33;0.38;;;;;;;;;;5023670;28;20036;-76
2023/05/18 08:13:49;;;;;;;5.97;0.70;;;;;;;;;;5021246;28;20017;-76
2023/05/18 08:16:15;;;;;;;0.60;0.47;;;;;;;;;;5023534;28;20042;-77
2023/05/18 08:18:42;;;;;;;0.45;0.45;;;;;;;;;;5024434;28;20489;-76
2023/05/18 08:21:08;;;;;;;0.30;0.30;;;;;;;;;;5022395;28;20231;-76
2023/05/18 08:23:35;;;;;;;0.50;0.47;;;;;;;;;;5027105;28;20037;-76
2023/05/18 08:26:04;;;;;;;1.75;0.55;;;;;;;;;;5024071;28;20029;-75
2023/05/18 08:28:30;;;;;;;0.77;0.60;;;;;;;;;;5024901;28;20029;-75
2023/05/18 08:30:56;;;;;;;1.85;0.28;;;;;;;;;;5025467;28;20130;-77
2023/05/18 08:33:22;;;;;;;1.13;0.68;;;;;;;;;;5024593;28;20125;-82
2023/05/18 08:35:49;;;;;;;0.43;0.40;;;;;;;;;;5027183;28;20025;-76
2023/05/18 08:38:18;;;;;;;1.40;0.40;;;;;;;;;;5027067;28;20064;-76
2023/05/18 08:40:53;;;;;;;1.70;0.50;;;;;;;;;;5018762;28;20018;-76
2023/05/18 08:43:26;;;;;;;1.95;0.50;;;;;;;;;;5028447;28;20036;-76
2023/05/18 08:45:58;;;;;;;0.75;0.60;;;;;;;;;;5030130;28;20028;-76
2023/05/18 08:48:26;;;;;;;0.50;0.50;;;;;;;;;;5030333;28;20391;-76
2023/05/18 08:50:55;;;;;;;2.65;0.60;;;;;;;;;;5031438;28;20029;-76
2023/05/18 08:53:24;;;;;;;0.60;0.40;;;;;;;;;;5021817;28;20029;-76
2023/05/18 08:55:52;;;;;;;0.60;0.40;;;;;;;;;;5026754;28;20037;-76
2023/05/18 08:58:19;;;;;;;0.45;0.40;;;;;;;;;;5018084;28;20029;-76
2023/05/18 09:00:45;;;;;;;0.38;0.30;;;;;;;;;;5029959;28;20017;-77
2023/05/18 09:03:13;;;;;;;3.17;0.75;;;;;;;;;;5027362;28;20083;-80
2023/05/18 09:05:43;;;;;;;1.65;0.60;;;;;;;;;;5027919;28;20040;-77
2023/05/18 09:08:09;;;;;;;2.58;0.70;;;;;;;;;;5018455;28;20124;-77
2023/05/18 09:10:36;;;;;;;0.28;0.28;;;;;;;;;;5027045;28;20045;-77
2023/05/18 09:13:04;;;;;;;0.52;0.50;;;;;;;;;;5025597;28;20041;-82
2023/05/18 09:15:30;;;;;;;0.90;0.65;;;;;;;;;;5023106;28;20116;-75
2023/05/18 09:17:56;;;;;;;1.95;0.60;;;;;;;;;;5022882;28;20116;-75
2023/05/18 09:20:22;;;;;;;0.40;0.40;;;;;;;;;;5024116;28;20030;-75
2023/05/18 09:22:50;;;;;;;3.70;0.93;;;;;;;;;;5025919;28;20468;-75
2023/05/18 09:25:19;;;;;;;1.38;0.70;;;;;;;;;;5026311;28;20075;-75
2023/05/18 09:27:45;;;;;;;0.47;0.40;;;;;;;;;;5019212;28;20111;-75
2023/05/18 09:30:15;;;;;;;3.50;0.93;;;;;;;;;;5025250;28;20488;-74
2023/05/18 09:32:41;;;;;;;1.95;0.95;;;;;;;;;;5027520;28;20017;-74
2023/05/18 09:35:07;;;;;;;1.25;0.60;;;;;;;;;;5027482;28;20033;-73
2023/05/18 09:37:40;;;;;;;0.40;0.40;;;;;;;;;;5025807;28;20439;-73
2023/05/18 09:40:07;;;;;;;0.70;0.60;;;;;;;;;;5027725;28;20040;-72
2023/05/18 09:42:37;;;;;;;1.45;0.47;;;;;;;;;;5026854;28;20060;-72
2023/05/18 09:45:15;;;;;;;0.57;0.40;;;;;;;;;;5025438;28;20018;-73
2023/05/18 09:47:41;;;;;;;1.02;0.50;;;;;;;;;;5025889;28;20037;-73
2023/05/18 09:50:07;;;;;;;3.17;0.68;;;;;;;;;;5025171;28;20080;-73
2023/05/18 09:52:41;;;;;;;3.35;0.85;;;;;;;;;;5025686;28;20029;-73
2023/05/18 09:55:07;;;;;;;4.03;0.70;;;;;;;;;;5027234;28;20021;-73
2023/05/18 09:57:39;;;;;;;3.28;0.52;;;;;;;;;;5027825;28;20448;-72
2023/05/18 10:00:09;;;;;;;2.92;0.73;;;;;;;;;;5025642;28;20010;-72
2023/05/18 10:02:38;;;;;;;1.02;0.77;;;;;;;;;;5029763;28;20095;-74
2023/05/18 10:05:08;;;;;;;3.70;0.70;;;;;;;;;;5029798;28;20064;-72
2023/05/18 10:07:35;;;;;;;0.38;0.20;;;;;;;;;;5025440;28;20053;-72
2023/05/18 10:10:02;;;;;;;0.73;0.68;;;;;;;;;;5024721;28;20037;-72
2023/05/18 10:12:28;;;;;;;4.75;0.73;;;;;;;;;;5017828;28;20033;-72
2023/05/18 10:14:54;;;;;;;2.45;0.70;;;;;;;;;;5025918;28;20559;-72
2023/05/18 10:17:21;;;;;;;3.83;1.40;;;;;;;;;;5024169;28;20025;-73
2023/05/18 10:19:49;;;;;;;0.68;0.40;;;;;;;;;;5029376;28;20480;-73
2023/05/18 10:22:16;;;;;;;3.10;1.20;;;;;;;;;;5026435;28;20034;-74
2023/05/18 10:24:44;;;;;;;2.83;0.63;;;;;;;;;;5020598;28;20417;-72
2023/05/18 10:27:11;;;;;;;1.65;0.50;;;;;;;;;;5026564;28;20048;-73
2023/05/18 10:29:37;;;;;;;0.32;0.30;;;;;;;;;;5028682;28;20049;-73
2023/05/18 10:32:04;;;;;;;1.83;0.63;;;;;;;;;;5027686;28;20480;-73
2023/05/18 10:34:40;;;;;;;1.50;0.60;;;;;;;;;;5028028;28;20143;-73
2023/05/18 10:37:06;;;;;;;3.00;1.10;;;;;;;;;;5002184;28;20227;-73
2023/05/18 10:39:33;;;;;;;1.95;0.50;;;;;;;;;;5029925;28;20165;-73
2023/05/18 10:42:00;;;;;;;0.30;0.30;;;;;;;;;;5026694;28;20132;-72
2023/05/18 10:44:26;;;;;;;1.10;0.40;;;;;;;;;;5022745;28;20110;-73
2023/05/18 10:46:52;;;;;;;8.60;1.20;;;;;;;;;;5022769;28;20033;-73
2023/05/18 10:49:22;;;;;;;0.80;0.63;;;;;;;;;;5023932;28;20199;-74
2023/05/18 10:51:49;;;;;;;3.50;0.85;;;;;;;;;;5026369;28;20021;-73
2023/05/18 10:54:18;;;;;;;2.58;0.40;;;;;;;;;;5026646;28;20029;-75
2023/05/18 10:56:49;;;;;;;0.30;0.30;;;;;;;;;;5032712;28;20021;-78
2023/05/18 10:59:17;;;;;;;1.98;1.00;;;;;;;;;;5025357;28;20091;-73
2023/05/18 11:01:43;;;;;;;0.85;0.70;;;;;;;;;;5025181;28;20079;-73
2023/05/18 11:04:10;;;;;;;3.55;1.00;;;;;;;;;;5022317;28;20030;-73
2023/05/18 11:06:36;;;;;;;1.90;0.82;;;;;;;;;;5023436;28;20033;-74
2023/05/18 11:09:02;;;;;;;1.90;0.47;;;;;;;;;;5023403;28;20017;-74
2023/05/18 11:11:31;;;;;;;0.70;0.60;;;;;;;;;;5021851;28;20476;-74
2023/05/18 11:14:01;;;;;;;0.52;0.30;;;;;;;;;;5023353;28;20025;-75
2023/05/18 11:16:34;;;;;;;0.30;0.30;;;;;;;;;;5023981;28;20022;-72
2023/05/18 11:19:07;;;;;;;1.95;0.77;;;;;;;;;;5025160;28;20026;-72
2023/05/18 11:21:40;;;;;;;0.57;0.55;;;;;;;;;;5024367;28;20163;-72
2023/05/18 11:24:18;;;;;;;1.80;0.90;;;;;;;;;;5025869;28;20104;-72
2023/05/18 11:26:48;;;;;;;1.15;0.68;;;;;;;;;;5024850;28;20057;-72
2023/05/18 11:29:18;;;;;;;0.70;0.57;;;;;;;;;;5026652;28;20025;-71
2023/05/18 11:31:46;;;;;;;7.35;0.50;;;;;;;;;;5005579;28;20087;-72
2023/05/18 11:34:31;;;;;;;1.48;0.63;;;;;;;;;;5024998;28;20472;-71
2023/05/18 11:36:57;;;;;;;3.40;0.93;;;;;;;;;;5024031;28;20079;-72
2023/05/18 11:39:24;;;;;;;1.30;0.82;;;;;;;;;;5025484;28;20033;-72
2023/05/18 11:41:59;;;;;;;1.48;0.80;;;;;;;;;;5032062;28;20028;-72
2023/05/18 11:44:27;;;;;;;1.10;0.68;;;;;;;;;;5025653;28;20619;-72
2023/05/18 11:47:08;;;;;;;0.68;0.68;;;;;;;;;;5028530;28;20037;-73
2023/05/18 11:49:43;;;;;;;1.90;0.87;;;;;;;;;;5024923;28;20028;-71
2023/05/18 11:52:18;;;;;;;1.00;0.47;;;;;;;;;;5026633;28;20038;-72
2023/05/18 11:54:52;;;;;;;3.75;0.82;;;;;;;;;;5024868;28;20029;-72
2023/05/18 11:57:41;;;;;;;1.75;0.70;;;;;;;;;;5027093;28;20022;-72
2023/05/18 12:00:11;;;;;;;1.35;0.55;;;;;;;;;;5020683;28;20380;-72
2023/05/18 12:02:37;;;;;;;1.75;0.90;;;;;;;;;;5022279;28;20120;-73
2023/05/18 12:05:10;;;;;;;15.18;0.90;;;;;;;;;;5027264;28;20366;-72
2023/05/18 12:07:37;;;;;;;1.90;0.90;;;;;;;;;;5025424;28;20414;-73
2023/05/18 12:10:04;;;;;;;1.27;0.77;;;;;;;;;;5031512;28;20029;-72
2023/05/18 12:12:31;;;;;;;0.95;0.65;;;;;;;;;;5026558;28;20641;-73
2023/05/18 12:14:59;;;;;;;0.85;0.80;;;;;;;;;;5023384;28;20037;-72
2023/05/18 12:17:38;;;;;;;2.58;1.20;;;;;;;;;;5032313;28;20032;-72
2023/05/18 12:20:05;;;;;;;1.00;0.70;;;;;;;;;;5036030;28;20142;-72
2023/05/18 12:22:31;;;;;;;2.10;0.77;;;;;;;;;;5028250;28;20033;-72
2023/05/18 12:24:57;;;;;;;1.55;0.93;;;;;;;;;;5031769;28;20353;-72
2023/05/18 12:27:25;;;;;;;1.58;0.55;;;;;;;;;;5026644;28;20033;-75
2023/05/18 12:29:51;;;;;;;1.17;0.90;;;;;;;;;;5027816;28;20021;-72
2023/05/18 12:32:17;;;;;;;0.77;0.70;;;;;;;;;;5028193;28;20032;-73
2023/05/18 12:34:43;;;;;;;5.70;1.27;;;;;;;;;;5028259;28;20427;-73
2023/05/18 12:37:09;;;;;;;3.33;1.02;;;;;;;;;;5029934;28;20128;-74
2023/05/18 12:39:36;;;;;;;4.07;1.23;;;;;;;;;;5024954;28;21980;-71
2023/05/18 12:42:09;;;;;;;1.20;0.85;;;;;;;;;;5029112;28;20030;-71
2023/05/18 12:44:35;;;;;;;3.03;0.93;;;;;;;;;;5027457;28;20030;-75
2023/05/18 12:47:02;;;;;;;3.03;0.60;;;;;;;;;;5026115;28;20018;-73
2023/05/18 12:49:28;;;;;;;2.40;1.00;;;;;;;;;;5035099;28;20532;-72
2023/05/18 12:51:55;;;;;;;2.63;0.65;;;;;;;;;;5025697;28;20059;-72
2023/05/18 12:54:30;;;;;;;0.85;0.70;;;;;;;;;;5029613;28;20037;-71
2023/05/18 12:56:59;;;;;;;1.15;0.60;;;;;;;;;;5028379;28;20475;-71
2023/05/18 12:59:26;;;;;;;1.73;0.55;;;;;;;;;;5031005;28;20108;-74
2023/05/18 13:01:52;;;;;;;1.65;0.65;;;;;;;;;;5025185;28;20049;-73
2023/05/18 13:04:19;;;;;;;4.82;1.00;;;;;;;;;;5031854;28;20046;-73
2023/05/18 13:06:45;;;;;;;5.03;0.75;;;;;;;;;;5025554;28;20029;-74
2023/05/18 13:09:14;;;;;;;109.85;48.75;;;;;;;;;;5025990;28;20032;-73
2023/05/18 13:11:40;;;;;;;17.75;9.07;;;;;;;;;;5025365;28;20031;-75
2023/05/18 13:14:09;;;;;;;8.77;5.28;;;;;;;;;;5025762;28;20061;-76
2023/05/18 13:16:37;;;;;;;28.52;15.48;;;;;;;;;;5027371;28;20029;-76
2023/05/18 13:19:05;;;;;;;23.63;14.00;;;;;;;;;;5026311;28;20048;-73
2023/05/18 13:21:31;;;;;;;15.75;9.07;;;;;;;;;;5026143;28;20562;-75
2023/05/18 13:23:57;;;;;;;20.33;10.65;;;;;;;;;;5025406;28;20025;-74
2023/05/18 13:26:32;;;;;;;30.20;16.90;;;;;;;;;;5022852;28;20380;-75
2023/05/18 13:28:59;;;;;;;62.22;33.97;;;;;;;;;;5021234;28;20076;-77
2023/05/18 13:31:25;;;;;;;50.05;27.55;;;;;;;;;;5026015;28;20013;-74
2023/05/18 13:33:51;;;;;;;41.10;22.10;;;;;;;;;;5028997;28;20417;-73
2023/05/18 13:36:18;;;;;;;493.45;287.98;;;;;;;;;;5025376;28;20423;-74
2023/05/18 13:38:44;;;;;;;494.83;293.45;;;;;;;;;;5025401;28;20022;-75
2023/05/18 13:41:11;;;;;;;342.33;195.48;;;;;;;;;;5026317;28;20025;-75
2023/05/18 13:43:37;;;;;;;238.75;126.38;;;;;;;;;;5028739;28;20752;-75
2023/05/18 13:46:03;;;;;;;143.98;73.30;;;;;;;;;;5022341;28;20051;-75
2023/05/18 13:48:29;;;;;;;97.38;50.30;;;;;;;;;;5027447;28;20087;-74
2023/05/18 13:50:56;;;;;;;126.13;59.58;;;;;;;;;;5026795;28;20017;-74
2023/05/18 13:53:22;;;;;;;37.47;19.10;;;;;;;;;;5028995;28;20282;-74
2023/05/18 13:55:48;;;;;;;26.45;14.60;;;;;;;;;;5026020;28;20100;-75
2023/05/18 13:58:14;;;;;;;26.27;12.77;;;;;;;;;;5031024;28;20030;-74
2023/05/18 14:00:40;;;;;;;19.65;9.75;;;;;;;;;;5025326;28;20017;-75
2023/05/18 14:03:06;;;;;;;13.95;6.00;;;;;;;;;;5027268;28;20024;-75
2023/05/18 14:05:32;;;;;;;8.52;5.10;;;;;;;;;;5028498;28;20483;-75
2023/05/18 14:07:58;;;;;;;11.52;5.75;;;;;;;;;;5025761;28;20029;-75
2023/05/18 14:10:24;;;;;;;6.20;3.35;;;;;;;;;;5029016;28;20140;-75
2023/05/18 14:12:50;;;;;;;5.95;3.47;;;;;;;;;;5024861;28;20021;-75
2023/05/18 14:15:16;;;;;;;5.00;2.92;;;;;;;;;;5027141;28;20476;-75
2023/05/18 14:17:44;;;;;;;4.22;1.98;;;;;;;;;;5023387;28;20032;-74
2023/05/18 14:20:10;;;;;;;4.38;2.38;;;;;;;;;;5029563;28;20036;-75
2023/05/18 14:22:36;;;;;;;4.13;2.00;;;;;;;;;;5030712;28;20079;-74
2023/05/18 14:25:02;;;;;;;3.38;1.35;;;;;;;;;;5024198;28;20041;-75
2023/05/18 14:27:29;;;;;;;2.33;1.48;;;;;;;;;;5034900;28;20029;-74
2023/05/18 14:29:55;;;;;;;1.95;1.58;;;;;;;;;;5028099;28;20080;-75
2023/05/18 14:32:30;;;;;;;1.60;1.23;;;;;;;;;;5024137;28;20025;-74
2023/05/18 14:34:57;;;;;;;1.63;1.10;;;;;;;;;;5024487;28;20314;-75
2023/05/18 14:37:23;;;;;;;0.98;0.80;;;;;;;;;;5029766;28;20025;-75
2023/05/18 14:39:49;;;;;;;0.70;0.65;;;;;;;;;;5028777;28;20021;-75
2023/05/18 14:42:15;;;;;;;2.15;0.90;;;;;;;;;;5025363;28;20666;-74